createdAt,value
2022-08-17T00:01:52.543Z,97201.18
2022-08-17T00:04:24.608Z,97201.00
2022-08-17T00:06:55.668Z,97202.02
2022-08-17T00:09:26.741Z,97199.02
2022-08-17T00:12:40.943Z,97196.25
2022-08-17T00:14:50.474Z,97195.01
2022-08-17T00:17:21.558Z,97196.48
2022-08-17T00:19:52.673Z,97196.55
2022-08-17T00:22:32.624Z,97198.25
2022-08-17T00:25:12.299Z,97196.16
2022-08-17T00:27:43.416Z,97203.15
2022-08-17T00:30:17.879Z,97198.67
2022-08-17T00:33:12.527Z,97200.32
2022-08-17T00:35:42.973Z,97204.48
2022-08-17T00:38:14.605Z,97200.46
2022-08-17T00:40:48.688Z,97200.45
2022-08-17T00:43:22.628Z,97195.33
2022-08-17T00:45:54.241Z,97192.53
2022-08-17T00:48:29.896Z,97195.27
2022-08-17T00:51:08.409Z,97194.23
2022-08-17T00:53:43.993Z,97194.46
2022-08-17T00:56:21.118Z,97190.20
2022-08-17T00:58:50.650Z,97193.39
2022-08-17T01:01:22.376Z,97193.27
2022-08-17T01:03:59.841Z,97193.62
2022-08-17T01:06:31.266Z,97196.14
2022-08-17T01:09:05.493Z,97196.30
2022-08-17T01:11:37.202Z,97195.73
2022-08-17T01:14:09.015Z,97188.39
2022-08-17T01:16:40.987Z,97189.40
2022-08-17T01:19:18.480Z,97192.72
2022-08-17T01:21:56.163Z,97192.69
2022-08-17T01:24:27.101Z,97192.06
2022-08-17T01:26:58.192Z,97192.45
2022-08-17T01:29:32.078Z,97189.41
2022-08-17T01:32:07.098Z,97191.36
2022-08-17T01:34:42.694Z,97188.13
2022-08-17T01:37:16.171Z,97189.42
2022-08-17T01:39:50.606Z,97190.48
2022-08-17T01:42:25.409Z,97190.40
2022-08-17T01:45:00.007Z,97189.66
2022-08-17T01:47:31.158Z,97195.92
2022-08-17T01:50:08.910Z,97195.96
2022-08-17T01:52:40.728Z,97193.86
2022-08-17T01:55:17.513Z,97194.60
2022-08-17T01:57:48.686Z,97194.91
2022-08-17T02:00:19.716Z,97197.34
2022-08-17T02:02:51.213Z,97196.41
2022-08-17T02:05:22.416Z,97200.89
2022-08-17T02:08:00.495Z,97201.73
2022-08-17T02:10:34.203Z,97204.17
2022-08-17T02:13:06.540Z,97201.50
2022-08-17T02:15:37.437Z,97204.70
2022-08-17T02:18:10.264Z,97200.52
2022-08-17T02:20:42.952Z,97202.73
2022-08-17T02:23:16.299Z,97203.01
2022-08-17T02:25:49.065Z,97205.07
2022-08-17T02:28:20.971Z,97205.02
2022-08-17T02:31:00.858Z,97205.77
2022-08-17T02:33:42.009Z,97209.11
2022-08-17T02:36:15.148Z,97205.65
2022-08-17T02:38:46.338Z,97205.16
2022-08-17T02:41:17.024Z,97206.30
2022-08-17T02:43:46.626Z,97207.10
2022-08-17T02:46:17.692Z,97209.57
2022-08-17T02:48:48.623Z,97213.19
2022-08-17T02:51:18.249Z,97209.17
2022-08-17T02:53:49.159Z,97213.83
2022-08-17T02:56:18.352Z,97212.98
2022-08-17T02:58:47.769Z,97215.90
2022-08-17T03:01:19.140Z,97217.08
2022-08-17T03:03:50.571Z,97220.19
2022-08-17T03:06:21.599Z,97220.69
2022-08-17T03:08:54.689Z,97220.05
2022-08-17T03:11:25.598Z,97221.61
2022-08-17T03:13:56.884Z,97220.55
2022-08-17T03:16:28.552Z,97222.40
2022-08-17T03:18:59.399Z,97224.34
2022-08-17T03:21:30.647Z,97222.92
2022-08-17T03:24:01.597Z,97226.05
2022-08-17T03:26:39.982Z,97229.34
2022-08-17T03:29:10.939Z,97233.48
2022-08-17T03:31:41.821Z,97231.79
2022-08-17T03:34:12.692Z,97232.84
2022-08-17T03:36:43.952Z,97227.41
2022-08-17T03:39:15.011Z,97227.72
2022-08-17T03:41:45.871Z,97222.80
2022-08-17T03:44:16.986Z,97223.85
2022-08-17T03:47:05.709Z,97221.21
2022-08-17T03:49:56.445Z,97219.36
2022-08-17T03:52:44.657Z,97217.71
2022-08-17T03:55:40.646Z,97222.77
2022-08-17T03:58:11.747Z,97226.60
2022-08-17T04:00:45.735Z,97227.93
2022-08-17T04:03:17.385Z,97223.84
2022-08-17T04:05:48.260Z,97222.94
2022-08-17T04:08:38.936Z,97224.69
2022-08-17T04:11:29.638Z,97223.25
2022-08-17T04:14:19.816Z,97226.41
2022-08-17T04:17:00.954Z,97224.05
2022-08-17T04:19:32.282Z,97227.84
2022-08-17T04:22:05.646Z,97229.84
2022-08-17T04:24:37.209Z,97233.73
2022-08-17T04:27:08.221Z,97233.36
2022-08-17T04:29:50.065Z,97233.55
2022-08-17T04:33:04.098Z,97230.39
2022-08-17T04:35:20.832Z,97229.89
2022-08-17T04:37:52.149Z,97228.10
2022-08-17T04:40:54.219Z,97233.38
2022-08-17T04:43:27.307Z,97232.91
2022-08-17T04:46:02.273Z,97224.88
2022-08-17T04:48:37.402Z,97224.35
2022-08-17T04:52:07.839Z,97214.74
2022-08-17T04:54:58.700Z,97218.72
2022-08-17T04:57:29.775Z,97219.71
2022-08-17T05:00:13.208Z,97223.24
2022-08-17T05:02:50.603Z,97230.51
2022-08-17T05:05:23.962Z,97230.52
2022-08-17T05:07:57.006Z,97231.03
2022-08-17T05:10:32.413Z,97231.05
2022-08-17T05:13:05.928Z,97236.99
2022-08-17T05:15:38.748Z,97235.67
2022-08-17T05:18:16.855Z,97233.80
2022-08-17T05:20:48.113Z,97232.33
2022-08-17T05:23:25.845Z,97233.87
2022-08-17T05:25:58.459Z,97232.41
2022-08-17T05:28:29.894Z,97233.52
2022-08-17T05:31:04.593Z,97230.66
2022-08-17T05:33:41.505Z,97228.84
2022-08-17T05:36:43.021Z,97226.04
2022-08-17T05:39:07.735Z,97229.60
2022-08-17T05:41:39.210Z,97231.19
2022-08-17T05:44:10.130Z,97226.95
2022-08-17T05:46:45.391Z,97229.85
2022-08-17T05:49:18.789Z,97229.55
2022-08-17T05:52:04.573Z,97230.11
2022-08-17T05:54:45.320Z,97229.02
2022-08-17T05:57:54.116Z,97233.27
2022-08-17T06:00:30.708Z,97236.34
2022-08-17T06:03:27.031Z,97237.90
2022-08-17T06:06:17.433Z,97242.63
2022-08-17T06:08:54.774Z,97244.98
2022-08-17T06:11:32.626Z,97246.73
2022-08-17T06:14:28.468Z,97242.52
2022-08-17T06:17:04.431Z,97245.56
2022-08-17T06:19:41.159Z,97251.27
2022-08-17T06:22:16.318Z,97249.43
2022-08-17T06:24:56.898Z,97255.58
2022-08-17T06:27:33.795Z,97248.62
2022-08-17T06:30:10.220Z,97246.55
2022-08-17T06:32:43.532Z,97250.95
2022-08-17T06:35:18.533Z,97249.81
2022-08-17T06:38:06.968Z,97251.27
2022-08-17T06:40:55.490Z,97247.73
2022-08-17T06:43:39.851Z,97248.17
2022-08-17T06:46:17.122Z,97249.77
2022-08-17T06:48:53.973Z,97249.19
2022-08-17T06:51:29.532Z,97243.35
2022-08-17T06:54:08.193Z,97241.25
2022-08-17T06:56:53.206Z,97241.63
2022-08-17T06:59:55.007Z,97243.34
2022-08-17T07:02:51.555Z,97246.45
2022-08-17T07:05:27.739Z,97240.27
2022-08-17T07:08:03.991Z,97243.92
2022-08-17T07:10:40.327Z,97245.58
2022-08-17T07:13:25.767Z,97244.48
2022-08-17T07:16:05.757Z,97244.54
2022-08-17T07:18:37.504Z,97243.24
2022-08-17T07:21:26.473Z,97243.55
2022-08-17T07:24:29.572Z,97248.36
2022-08-17T07:27:13.616Z,97251.15
2022-08-17T07:29:49.519Z,97249.83
2022-08-17T07:32:26.601Z,97247.21
2022-08-17T07:35:16.498Z,97245.73
2022-08-17T07:37:54.175Z,97244.90
2022-08-17T07:40:36.762Z,97245.63
2022-08-17T07:43:22.170Z,97243.36
2022-08-17T07:46:30.694Z,97248.79
2022-08-17T07:49:21.278Z,97244.20
2022-08-17T07:52:24.815Z,97248.46
2022-08-17T07:54:56.611Z,97255.93
2022-08-17T07:57:35.332Z,97255.19
2022-08-17T08:00:32.336Z,97254.93
2022-08-17T08:03:13.337Z,97250.39
2022-08-17T08:05:55.411Z,97250.44
2022-08-17T08:08:34.610Z,97248.85
2022-08-17T08:11:10.285Z,97247.23
2022-08-17T08:13:43.933Z,97252.58
2022-08-17T08:16:25.423Z,97253.13
2022-08-17T08:18:58.478Z,97248.10
2022-08-17T08:21:43.217Z,97250.73
2022-08-17T08:24:40.241Z,97246.83
2022-08-17T08:27:21.486Z,97250.21
2022-08-17T08:29:58.794Z,97250.75
2022-08-17T08:32:50.297Z,97250.38
2022-08-17T08:35:32.521Z,97250.10
2022-08-17T08:38:15.898Z,97249.66
2022-08-17T08:41:03.588Z,97246.73
2022-08-17T08:43:45.185Z,97246.63
2022-08-17T08:46:30.800Z,97246.11
2022-08-17T08:49:58.990Z,97246.34
2022-08-17T08:52:34.324Z,97242.05
2022-08-17T08:55:13.252Z,97246.77
2022-08-17T08:57:50.281Z,97251.98
2022-08-17T09:00:24.825Z,97251.02
2022-08-17T09:03:36.751Z,97248.73
2022-08-17T09:06:33.592Z,97248.30
2022-08-17T09:09:27.640Z,97248.45
2022-08-17T09:12:13.806Z,97250.38
2022-08-17T09:14:52.836Z,97249.45
2022-08-17T09:17:31.308Z,97252.06
2022-08-17T09:20:07.285Z,97246.02
2022-08-17T09:22:42.725Z,97248.54
2022-08-17T09:25:17.504Z,97242.27
2022-08-17T09:27:57.902Z,97244.05
2022-08-17T09:30:44.153Z,97242.77
2022-08-17T09:33:22.970Z,97240.30
2022-08-17T09:35:58.668Z,97238.86
2022-08-17T09:38:41.694Z,97237.89
2022-08-17T09:41:19.834Z,97240.55
2022-08-17T09:44:08.566Z,97237.05
2022-08-17T09:47:03.506Z,97238.61
2022-08-17T09:49:39.910Z,97243.13
2022-08-17T09:52:18.366Z,97241.20
2022-08-17T09:54:51.968Z,97235.30
2022-08-17T09:57:35.455Z,97234.79
2022-08-17T10:00:18.808Z,97227.81
2022-08-17T10:03:09.823Z,97227.17
2022-08-17T10:05:46.806Z,97224.40
2022-08-17T10:08:27.748Z,97218.54
2022-08-17T10:11:08.391Z,97219.27
2022-08-17T10:13:52.956Z,97219.58
2022-08-17T10:16:31.427Z,97221.19
2022-08-17T10:19:11.498Z,97217.42
2022-08-17T10:22:14.744Z,97221.64
2022-08-17T10:25:24.849Z,97224.98
2022-08-17T10:28:06.461Z,97231.66
2022-08-17T10:30:47.957Z,97229.11
2022-08-17T10:33:23.551Z,97222.98
2022-08-17T10:36:03.651Z,97217.39
2022-08-17T10:38:46.154Z,97217.19
2022-08-17T10:41:36.841Z,97213.61
2022-08-17T10:44:39.557Z,97210.09
2022-08-17T10:47:14.489Z,97216.41
2022-08-17T10:49:54.443Z,97214.46
2022-08-17T10:52:50.279Z,97212.50
2022-08-17T10:55:25.934Z,97213.30
2022-08-17T10:58:27.147Z,97208.33
2022-08-17T11:01:09.811Z,97203.27
2022-08-17T11:03:54.175Z,97208.65
2022-08-17T11:06:42.638Z,97203.79
2022-08-17T11:09:21.009Z,97202.44
2022-08-17T11:12:11.373Z,97203.99
2022-08-17T11:15:14.096Z,97204.45
2022-08-17T11:18:07.301Z,97209.61
2022-08-17T11:21:17.519Z,97208.18
2022-08-17T11:24:18.759Z,97206.50
2022-08-17T11:27:12.187Z,97201.65
2022-08-17T11:29:58.163Z,97195.79
2022-08-17T11:32:47.248Z,97193.84
2022-08-17T11:35:40.035Z,97193.23
2022-08-17T11:38:27.818Z,97194.11
2022-08-17T11:41:07.761Z,97197.45
2022-08-17T11:44:17.494Z,97193.05
2022-08-17T11:47:23.252Z,97194.87
2022-08-17T11:50:28.315Z,97193.76
2022-08-17T11:52:59.392Z,97186.40
2022-08-17T11:56:00.930Z,97189.50
2022-08-17T11:58:43.425Z,97180.20
2022-08-17T12:01:35.342Z,97186.61
2022-08-17T12:04:28.077Z,97187.20
2022-08-17T12:07:06.525Z,97180.54
2022-08-17T12:09:42.921Z,97174.92
2022-08-17T12:12:17.583Z,97172.23
2022-08-17T12:15:12.923Z,97175.08
2022-08-17T12:17:51.641Z,97171.15
2022-08-17T12:20:28.041Z,97170.39
2022-08-17T12:23:11.066Z,97163.21
2022-08-17T12:25:49.447Z,97163.73
2022-08-17T12:28:28.702Z,97162.38
2022-08-17T12:31:03.016Z,97167.55
2022-08-17T12:33:37.168Z,97174.36
2022-08-17T12:36:12.611Z,97160.91
2022-08-17T12:38:51.640Z,97158.02
2022-08-17T12:41:36.052Z,97159.79
2022-08-17T12:44:13.248Z,97160.31
2022-08-17T12:47:00.806Z,97155.83
2022-08-17T12:49:36.600Z,97159.27
2022-08-17T12:52:16.997Z,97158.09
2022-08-17T12:55:00.635Z,97156.77
2022-08-17T12:57:37.580Z,97155.90
2022-08-17T13:00:17.862Z,97155.92
2022-08-17T13:02:52.087Z,97150.85
2022-08-17T13:05:30.281Z,97157.90
2022-08-17T13:08:04.495Z,97160.02
2022-08-17T13:10:38.103Z,97158.55
2022-08-17T13:13:25.013Z,97155.65
2022-08-17T13:15:58.310Z,97157.48
2022-08-17T13:18:42.778Z,97155.59
2022-08-17T13:21:30.723Z,97151.13
2022-08-17T13:24:01.466Z,97148.77
2022-08-17T13:26:37.996Z,97146.83
2022-08-17T13:29:24.021Z,97151.11
2022-08-17T13:32:04.086Z,97143.02
2022-08-17T13:34:59.599Z,97137.27
2022-08-17T13:37:35.301Z,97137.08
2022-08-17T13:40:36.771Z,97142.20
2022-08-17T13:43:08.000Z,97140.88
2022-08-17T13:46:08.105Z,97137.15
2022-08-17T13:48:39.388Z,97133.73
2022-08-17T13:51:26.460Z,97132.58
2022-08-17T13:54:02.161Z,97125.27
2022-08-17T13:56:51.918Z,97130.42
2022-08-17T13:59:52.618Z,97132.36
2022-08-17T14:02:22.455Z,97133.48
2022-08-17T14:04:57.238Z,97125.75
2022-08-17T14:07:36.591Z,97123.48
2022-08-17T14:10:13.390Z,97134.05
2022-08-17T14:12:46.096Z,97133.91
2022-08-17T14:15:20.581Z,97134.16
2022-08-17T14:17:52.827Z,97135.08
2022-08-17T14:20:25.365Z,97133.08
2022-08-17T14:22:57.312Z,97131.81
2022-08-17T14:25:30.648Z,97130.19
2022-08-17T14:28:01.765Z,97131.26
2022-08-17T14:30:34.500Z,97131.79
2022-08-17T14:33:06.133Z,97127.58
2022-08-17T14:35:37.519Z,97121.42
2022-08-17T14:38:09.824Z,97125.05
2022-08-17T14:40:41.072Z,97126.27
2022-08-17T14:43:12.314Z,97124.55
2022-08-17T14:45:43.307Z,97119.48
2022-08-17T14:48:14.243Z,97114.27
2022-08-17T14:50:46.380Z,97112.48
2022-08-17T14:53:17.832Z,97118.45
2022-08-17T14:55:50.582Z,97125.69
2022-08-17T14:58:22.387Z,97115.31
2022-08-17T15:00:53.474Z,97119.73
2022-08-17T15:03:24.712Z,97121.96
2022-08-17T15:05:56.146Z,97127.02
2022-08-17T15:08:28.365Z,97125.02
2022-08-17T15:11:07.787Z,97132.03
2022-08-17T15:13:53.307Z,97131.80
2022-08-17T15:16:24.539Z,97128.27
2022-08-17T15:18:55.675Z,97133.00
2022-08-17T15:21:28.878Z,97134.89
2022-08-17T15:24:00.243Z,97135.33
2022-08-17T15:26:31.694Z,97136.63
2022-08-17T15:29:03.385Z,97137.50
2022-08-17T15:31:35.804Z,97137.50
2022-08-17T15:34:07.936Z,97143.09
2022-08-17T15:36:41.337Z,97143.73
2022-08-17T15:39:22.160Z,97149.05
2022-08-17T15:41:58.673Z,97149.83
2022-08-17T15:44:32.464Z,97153.13
2022-08-17T15:47:06.346Z,97151.15
2022-08-17T15:49:39.648Z,97148.40
2022-08-17T15:52:19.365Z,97145.39
2022-08-17T15:54:56.303Z,97141.59
2022-08-17T15:57:28.222Z,97139.42
2022-08-17T16:00:00.029Z,97136.41
2022-08-17T16:03:15.145Z,97138.50
2022-08-17T16:05:28.702Z,97136.08
2022-08-17T16:08:02.322Z,97132.42
2022-08-17T16:10:34.959Z,97125.91
2022-08-17T16:13:17.793Z,97129.27
2022-08-17T16:15:56.945Z,97130.98
2022-08-17T16:18:31.792Z,97136.16
2022-08-17T16:21:25.408Z,97139.73
2022-08-17T16:23:58.736Z,97137.59
2022-08-17T16:26:30.911Z,97133.41
2022-08-17T16:29:05.440Z,97131.63
2022-08-17T16:31:37.746Z,97135.79
2022-08-17T16:34:17.971Z,97132.80
2022-08-17T16:36:55.456Z,97127.44
2022-08-17T16:39:29.688Z,97125.52
2022-08-17T16:42:02.641Z,97124.48
2022-08-17T16:44:33.913Z,97120.19
2022-08-17T16:47:07.460Z,97116.37
2022-08-17T16:49:39.404Z,97106.33
2022-08-17T16:52:12.006Z,97097.01
2022-08-17T16:54:45.606Z,97092.59
2022-08-17T16:57:17.530Z,97098.69
2022-08-17T16:59:50.412Z,97098.08
2022-08-17T17:02:31.208Z,97100.77
2022-08-17T17:05:08.583Z,97100.18
2022-08-17T17:07:55.220Z,97103.02
2022-08-17T17:10:33.342Z,97108.23
2022-08-17T17:13:06.729Z,97108.02
2022-08-17T17:15:47.745Z,97112.69
2022-08-17T17:18:20.949Z,97116.27
2022-08-17T17:20:56.566Z,97121.55
2022-08-17T17:23:51.316Z,97126.94
2022-08-17T17:26:33.392Z,97137.94
2022-08-17T17:29:08.338Z,97144.83
2022-08-17T17:31:56.046Z,97142.33
2022-08-17T17:34:30.659Z,97140.52
2022-08-17T17:37:09.008Z,97141.96
2022-08-17T17:39:45.326Z,97143.39
2022-08-17T17:42:20.468Z,97137.86
2022-08-17T17:44:56.715Z,97134.41
2022-08-17T17:47:27.760Z,97132.66
2022-08-17T17:50:01.050Z,97125.82
2022-08-17T17:52:38.814Z,97123.29
2022-08-17T17:55:19.399Z,97123.05
2022-08-17T17:58:02.443Z,97135.33
2022-08-17T18:00:40.323Z,97142.31
2022-08-17T18:03:27.129Z,97144.05
2022-08-17T18:06:23.860Z,97150.91
2022-08-17T18:09:10.161Z,97160.49
2022-08-17T18:11:59.975Z,97162.59
2022-08-17T18:14:47.734Z,97160.84
2022-08-17T18:17:20.522Z,97156.62
2022-08-17T18:19:51.465Z,97153.85
2022-08-17T18:22:24.418Z,97162.30
2022-08-17T18:24:57.411Z,97166.06
2022-08-17T18:27:35.009Z,97163.64
2022-08-17T18:30:28.885Z,97164.73
2022-08-17T18:33:26.964Z,97172.05
2022-08-17T18:36:14.021Z,97179.52
2022-08-17T18:38:54.305Z,97181.88
2022-08-17T18:41:31.851Z,97183.16
2022-08-17T18:44:17.493Z,97188.71
2022-08-17T18:46:49.091Z,97195.18
2022-08-17T18:49:30.228Z,97197.80
2022-08-17T18:52:15.563Z,97194.66
2022-08-17T18:55:03.920Z,97197.39
2022-08-17T18:57:38.260Z,97191.74
2022-08-17T19:00:26.701Z,97199.54
2022-08-17T19:03:09.766Z,97205.46
2022-08-17T19:05:46.632Z,97200.34
2022-08-17T19:08:28.411Z,97195.56
2022-08-17T19:11:04.733Z,97202.00
2022-08-17T19:13:40.516Z,97204.46
2022-08-17T19:16:18.655Z,97204.48
2022-08-17T19:18:57.956Z,97201.23
2022-08-17T19:21:36.097Z,97201.20
2022-08-17T19:24:12.635Z,97209.79
2022-08-17T19:26:54.600Z,97206.92
2022-08-17T19:29:36.962Z,97205.31
2022-08-17T19:32:10.694Z,97205.05
2022-08-17T19:34:44.766Z,97200.72
2022-08-17T19:37:28.517Z,97198.23
2022-08-17T19:40:24.528Z,97193.64
2022-08-17T19:43:10.792Z,97194.36
2022-08-17T19:45:56.144Z,97194.79
2022-08-17T19:48:40.879Z,97194.89
2022-08-17T19:51:17.890Z,97197.82
2022-08-17T19:54:05.829Z,97199.95
2022-08-17T19:56:45.770Z,97197.58
2022-08-17T19:59:26.012Z,97199.46
2022-08-17T20:02:01.338Z,97199.61
2022-08-17T20:04:42.224Z,97200.59
2022-08-17T20:07:18.951Z,97202.63
2022-08-17T20:09:57.109Z,97198.22
2022-08-17T20:12:34.567Z,97200.46
2022-08-17T20:15:10.718Z,97200.54
2022-08-17T20:17:47.418Z,97201.96
2022-08-17T20:20:21.869Z,97195.25
2022-08-17T20:23:00.275Z,97194.02
2022-08-17T20:25:39.176Z,97196.47
2022-08-17T20:28:23.334Z,97190.58
2022-08-17T20:30:54.912Z,97187.14
2022-08-17T20:33:29.915Z,97187.52
2022-08-17T20:36:15.299Z,97185.27
2022-08-17T20:38:50.635Z,97187.06
2022-08-17T20:41:24.339Z,97183.99
2022-08-17T20:44:06.817Z,97170.45
2022-08-17T20:47:04.721Z,97170.67
2022-08-17T20:49:50.271Z,97174.61
2022-08-17T20:52:52.169Z,97176.16
2022-08-17T20:55:53.529Z,97171.46
2022-08-17T20:58:48.231Z,97164.73
2022-08-17T21:01:35.366Z,97159.20
2022-08-17T21:04:09.547Z,97169.34
2022-08-17T21:07:17.652Z,97164.95
2022-08-17T21:09:50.096Z,97161.05
2022-08-17T21:12:43.148Z,97161.70
2022-08-17T21:15:31.235Z,97163.40
2022-08-17T21:18:12.527Z,97166.06
2022-08-17T21:20:58.250Z,97171.70
2022-08-17T21:23:48.216Z,97172.36
2022-08-17T21:26:31.584Z,97176.84
2022-08-17T21:29:29.490Z,97180.46
2022-08-17T21:32:24.233Z,97190.67
2022-08-17T21:35:47.327Z,97192.05
2022-08-17T21:38:20.887Z,97203.05
2022-08-17T21:40:54.224Z,97206.63
2022-08-17T21:43:32.060Z,97211.97
2022-08-17T21:46:08.341Z,97215.23
2022-08-17T21:48:48.256Z,97214.83
2022-08-17T21:51:23.942Z,97224.27
2022-08-17T21:53:58.669Z,97227.97
2022-08-17T21:56:32.775Z,97229.59
2022-08-17T21:59:07.144Z,97234.50
2022-08-17T22:01:41.395Z,97239.48
2022-08-17T22:04:25.538Z,97235.20
2022-08-17T22:06:57.897Z,97233.98
2022-08-17T22:09:32.180Z,97232.52
2022-08-17T22:12:07.533Z,97230.64
2022-08-17T22:14:53.243Z,97235.85
2022-08-17T22:17:27.688Z,97237.10
2022-08-17T22:20:01.823Z,97239.48
2022-08-17T22:22:57.884Z,97242.44
2022-08-17T22:25:31.127Z,97245.84
2022-08-17T22:28:03.965Z,97246.40
2022-08-17T22:30:40.337Z,97249.82
2022-08-17T22:33:37.906Z,97254.11
2022-08-17T22:36:26.531Z,97247.84
2022-08-17T22:39:02.739Z,97252.43
2022-08-17T22:41:54.705Z,97249.86
2022-08-17T22:44:30.336Z,97254.31
2022-08-17T22:47:06.805Z,97253.70
2022-08-17T22:49:53.140Z,97251.95
2022-08-17T22:52:32.719Z,97254.84
2022-08-17T22:55:26.383Z,97256.98
2022-08-17T22:58:14.801Z,97254.21
2022-08-17T23:00:48.753Z,97254.86
2022-08-17T23:03:22.364Z,97255.08
2022-08-17T23:06:06.825Z,97249.23
2022-08-17T23:08:47.224Z,97246.35
2022-08-17T23:11:18.279Z,97238.46
2022-08-17T23:13:49.394Z,97235.34
2022-08-17T23:16:21.349Z,97231.98
2022-08-17T23:18:52.728Z,97224.67
2022-08-17T23:21:29.590Z,97223.55
2022-08-17T23:24:01.946Z,97219.73
2022-08-17T23:26:39.440Z,97219.84
2022-08-17T23:29:10.860Z,97220.31
2022-08-17T23:31:42.858Z,97217.22
2022-08-17T23:34:18.513Z,97209.37
2022-08-17T23:36:52.370Z,97207.60
2022-08-17T23:39:27.695Z,97215.91
2022-08-17T23:42:00.264Z,97222.80
2022-08-17T23:44:32.764Z,97217.55
2022-08-17T23:47:04.620Z,97217.67
2022-08-17T23:49:36.184Z,97217.73
2022-08-17T23:52:12.636Z,97208.48
2022-08-17T23:54:48.103Z,97212.54
2022-08-17T23:57:33.712Z,97215.05
